Milltown, South Dakota
Current Conditions -  °F | °C
As of 1:53 AM on Friday 28 Nov 2014 (Local Time) from KMHE Reporting Station
Clear Clear  
Wind Chill:   Ceiling: Unl
Heat Index: 22°   Visibility: 10mi
Dew Point: 16°   Wind: 15mph
Humidity: 78%   Direction: 160°SSE
Pressure: 29.87"   Gusts: NA
Location:  43.4018°N, 97.9102°W
Report Text: KMHE 280753Z AUTO 16013KT 10SM CLR M06/M09 A2987 RMK AO2 SLP137 T10561089 $
Loading
Personal Weather Stations






























Interactive Weather Map New forecast layout! Learn more

10-Day Weather Forecast

Advertisements
Track Severe Weather on mobile